createdAt,value
2023-05-25T00:01:09.002Z,7.90
2023-05-25T00:03:36.499Z,7.80
2023-05-25T00:06:03.986Z,7.80
2023-05-25T00:08:31.212Z,7.80
2023-05-25T00:10:59.089Z,7.80
2023-05-25T00:13:26.179Z,7.70
2023-05-25T00:15:53.331Z,7.70
2023-05-25T00:18:20.423Z,7.70
2023-05-25T00:20:47.743Z,7.70
2023-05-25T00:23:15.162Z,7.60
2023-05-25T00:25:42.754Z,7.60
2023-05-25T00:28:11.779Z,7.60
2023-05-25T00:30:39.000Z,7.60
2023-05-25T00:33:06.873Z,7.60
2023-05-25T00:35:33.978Z,7.60
2023-05-25T00:38:01.107Z,7.60
2023-05-25T00:40:28.176Z,7.50
2023-05-25T00:42:57.774Z,7.50
2023-05-25T00:45:24.804Z,7.50
2023-05-25T00:47:53.236Z,7.40
2023-05-25T00:50:42.540Z,7.40
2023-05-25T00:53:13.206Z,7.40
2023-05-25T00:56:04.246Z,7.40
2023-05-25T00:58:34.864Z,7.40
2023-05-25T01:01:04.017Z,7.30
2023-05-25T01:03:37.825Z,7.30
2023-05-25T01:06:11.936Z,7.30
2023-05-25T01:08:42.943Z,7.30
2023-05-25T01:11:12.222Z,7.20
2023-05-25T01:13:41.850Z,7.20
2023-05-25T01:16:10.041Z,7.20
2023-05-25T01:18:37.702Z,7.20
2023-05-25T01:21:18.061Z,7.20
2023-05-25T01:24:17.742Z,7.20
2023-05-25T01:27:17.380Z,7.10
2023-05-25T01:29:46.760Z,7.10
2023-05-25T01:32:14.731Z,7.10
2023-05-25T01:34:43.973Z,7.10
2023-05-25T01:37:17.489Z,7.00
2023-05-25T01:39:44.654Z,7.00
2023-05-25T01:42:11.746Z,7.00
2023-05-25T01:44:39.835Z,7.00
2023-05-25T01:47:30.772Z,7.00
2023-05-25T01:50:08.217Z,7.00
2023-05-25T01:52:50.422Z,6.90
2023-05-25T01:55:21.561Z,6.90
2023-05-25T01:57:51.392Z,6.90
2023-05-25T02:00:21.330Z,6.90
2023-05-25T02:02:50.155Z,6.80
2023-05-25T02:05:22.339Z,6.80
2023-05-25T02:07:49.510Z,6.80
2023-05-25T02:10:16.684Z,6.80
2023-05-25T02:12:43.670Z,6.80
2023-05-25T02:15:12.204Z,6.80
2023-05-25T02:17:39.345Z,6.80
2023-05-25T02:20:08.260Z,6.80
2023-05-25T02:22:35.497Z,6.80
2023-05-25T02:25:02.637Z,6.70
2023-05-25T02:27:30.156Z,6.80
2023-05-25T02:29:57.253Z,6.70
2023-05-25T02:32:26.160Z,6.70
2023-05-25T02:34:53.329Z,6.70
2023-05-25T02:37:21.190Z,6.70
2023-05-25T02:39:48.277Z,6.70
2023-05-25T02:42:15.445Z,6.70
2023-05-25T02:44:48.275Z,6.60
2023-05-25T02:47:19.409Z,6.60
2023-05-25T02:49:46.568Z,6.60
2023-05-25T02:52:13.892Z,6.60
2023-05-25T02:54:41.739Z,6.60
2023-05-25T02:57:14.341Z,6.60
2023-05-25T02:59:43.066Z,6.60
2023-05-25T03:02:10.254Z,6.60
2023-05-25T03:04:39.495Z,6.50
2023-05-25T03:07:06.625Z,6.50
2023-05-25T03:09:33.657Z,6.50
2023-05-25T03:12:03.298Z,6.50
2023-05-25T03:14:30.434Z,6.50
2023-05-25T03:17:04.175Z,6.50
2023-05-25T03:19:32.356Z,6.50
2023-05-25T03:22:00.123Z,6.50
2023-05-25T03:24:28.816Z,6.50
2023-05-25T03:26:59.431Z,6.50
2023-05-25T03:29:27.042Z,6.50
2023-05-25T03:31:54.266Z,6.50
2023-05-25T03:34:26.183Z,6.50
2023-05-25T03:36:54.992Z,6.50
2023-05-25T03:39:22.326Z,6.50
2023-05-25T03:41:51.424Z,6.50
2023-05-25T03:44:19.107Z,6.50
2023-05-25T03:46:46.698Z,6.50
2023-05-25T03:49:14.160Z,6.60
2023-05-25T03:51:42.851Z,6.60
2023-05-25T03:54:10.171Z,6.60
2023-05-25T03:56:37.268Z,6.60
2023-05-25T03:59:06.185Z,6.60
2023-05-25T04:01:40.041Z,6.70
2023-05-25T04:04:07.180Z,6.70
2023-05-25T04:06:37.203Z,6.80
2023-05-25T04:09:05.026Z,6.80
2023-05-25T04:11:33.769Z,6.80
2023-05-25T04:14:00.909Z,6.90
2023-05-25T04:16:30.477Z,6.90
2023-05-25T04:18:58.954Z,7.00
2023-05-25T04:21:26.885Z,7.00
2023-05-25T04:23:54.035Z,7.10
2023-05-25T04:26:21.216Z,7.10
2023-05-25T04:28:51.952Z,7.20
2023-05-25T04:31:49.665Z,7.20
2023-05-25T04:34:33.852Z,7.20
2023-05-25T04:37:05.208Z,7.30
2023-05-25T04:39:32.952Z,7.30
2023-05-25T04:42:04.519Z,7.40
2023-05-25T04:44:33.226Z,7.40
2023-05-25T04:47:03.836Z,7.50
2023-05-25T04:49:34.720Z,7.60
2023-05-25T04:52:01.664Z,7.80
2023-05-25T04:54:30.628Z,7.90
2023-05-25T04:57:01.603Z,8.00
2023-05-25T04:59:28.628Z,8.20
2023-05-25T05:01:55.968Z,8.30
2023-05-25T05:04:23.151Z,8.40
2023-05-25T05:06:51.416Z,8.60
2023-05-25T05:09:21.035Z,8.70
2023-05-25T05:11:48.802Z,8.90
2023-05-25T05:14:16.992Z,9.00
2023-05-25T05:16:45.697Z,9.20
2023-05-25T05:19:12.780Z,9.30
2023-05-25T05:21:41.077Z,9.40
2023-05-25T05:24:08.773Z,9.50
2023-05-25T05:26:48.202Z,9.60
2023-05-25T05:29:26.811Z,9.70
2023-05-25T05:31:55.939Z,9.80
2023-05-25T05:34:23.162Z,9.90
2023-05-25T05:36:57.914Z,10.00
2023-05-25T05:39:27.901Z,10.10
2023-05-25T05:41:56.317Z,10.20
2023-05-25T05:44:27.915Z,10.30
2023-05-25T05:47:01.187Z,10.40
2023-05-25T05:49:30.760Z,10.50
2023-05-25T05:51:58.623Z,10.60
2023-05-25T05:54:27.833Z,10.70
2023-05-25T05:56:56.030Z,10.90
2023-05-25T05:59:23.316Z,10.90
2023-05-25T06:01:50.631Z,11.00
2023-05-25T06:04:19.269Z,11.20
2023-05-25T06:06:46.977Z,11.30
2023-05-25T06:09:14.434Z,11.40
2023-05-25T06:11:41.805Z,11.50
2023-05-25T06:14:11.294Z,11.60
2023-05-25T06:16:38.552Z,11.80
2023-05-25T06:19:05.834Z,11.90
2023-05-25T06:21:33.026Z,12.00
2023-05-25T06:24:00.070Z,12.20
2023-05-25T06:26:27.349Z,12.40
2023-05-25T06:28:55.167Z,12.50
2023-05-25T06:31:22.558Z,12.70
2023-05-25T06:33:49.744Z,12.80
2023-05-25T06:36:17.154Z,13.00
2023-05-25T06:38:47.156Z,13.10
2023-05-25T06:41:15.400Z,13.20
2023-05-25T06:43:43.616Z,13.10
2023-05-25T06:46:26.051Z,13.20
2023-05-25T06:48:53.259Z,13.20
2023-05-25T06:51:21.095Z,13.20
2023-05-25T06:53:48.130Z,13.30
2023-05-25T06:56:16.083Z,13.40
2023-05-25T06:58:43.373Z,13.60
2023-05-25T07:01:10.816Z,13.70
2023-05-25T07:03:38.685Z,13.80
2023-05-25T07:06:07.218Z,13.90
2023-05-25T07:08:34.350Z,14.00
2023-05-25T07:11:01.516Z,14.20
2023-05-25T07:13:28.757Z,14.40
2023-05-25T07:15:55.819Z,14.30
2023-05-25T07:18:22.955Z,14.30
2023-05-25T07:20:50.144Z,14.40
2023-05-25T07:23:17.378Z,14.40
2023-05-25T07:25:45.055Z,14.50
2023-05-25T07:28:12.544Z,14.70
2023-05-25T07:30:40.813Z,14.80
2023-05-25T07:33:07.939Z,15.00
2023-05-25T07:35:35.552Z,15.00
2023-05-25T07:38:06.929Z,15.00
2023-05-25T07:40:34.050Z,15.00
2023-05-25T07:43:01.421Z,15.10
2023-05-25T07:45:28.513Z,15.10
2023-05-25T07:47:55.791Z,15.10
2023-05-25T07:50:23.977Z,15.00
2023-05-25T07:52:51.155Z,15.10
2023-05-25T07:55:20.097Z,15.10
2023-05-25T07:57:47.348Z,15.20
2023-05-25T08:00:14.771Z,15.20
2023-05-25T08:02:42.177Z,15.40
2023-05-25T08:05:10.264Z,15.40
2023-05-25T08:07:38.593Z,15.70
2023-05-25T08:10:07.534Z,15.80
2023-05-25T08:12:48.004Z,15.90
2023-05-25T08:15:17.037Z,16.00
2023-05-25T08:17:44.633Z,16.00
2023-05-25T08:20:12.702Z,16.10
2023-05-25T08:22:39.878Z,15.90
2023-05-25T08:25:08.145Z,15.80
2023-05-25T08:27:36.582Z,15.70
2023-05-25T08:30:08.151Z,15.50
2023-05-25T08:32:35.398Z,15.70
2023-05-25T08:35:03.516Z,15.70
2023-05-25T08:37:32.273Z,15.70
2023-05-25T08:40:02.152Z,15.90
2023-05-25T08:42:29.530Z,15.80
2023-05-25T08:44:56.949Z,15.90
2023-05-25T08:47:24.885Z,15.90
2023-05-25T08:49:53.224Z,15.80
2023-05-25T08:52:26.822Z,15.80
2023-05-25T08:54:58.796Z,15.90
2023-05-25T08:57:41.295Z,15.70
2023-05-25T09:00:12.990Z,15.70
2023-05-25T09:02:51.782Z,15.60
2023-05-25T09:05:19.740Z,15.80
2023-05-25T09:07:47.609Z,16.20
2023-05-25T09:10:15.590Z,16.30
2023-05-25T09:12:43.847Z,16.20
2023-05-25T09:15:12.063Z,15.90
2023-05-25T09:17:41.292Z,15.90
2023-05-25T09:20:12.005Z,16.40
2023-05-25T09:22:41.021Z,16.70
2023-05-25T09:25:10.598Z,16.90
2023-05-25T09:27:38.387Z,16.90
2023-05-25T09:30:06.774Z,16.70
2023-05-25T09:32:34.063Z,16.60
2023-05-25T09:35:12.972Z,16.70
2023-05-25T09:37:42.449Z,17.00
2023-05-25T09:40:11.078Z,16.90
2023-05-25T09:42:38.999Z,16.90
2023-05-25T09:45:07.204Z,16.90
2023-05-25T09:47:37.187Z,17.00
2023-05-25T09:50:05.669Z,17.30
2023-05-25T09:52:33.304Z,17.70
2023-05-25T09:55:02.497Z,17.40
2023-05-25T09:57:29.610Z,17.20
2023-05-25T09:59:57.146Z,17.30
2023-05-25T10:02:24.285Z,17.80
2023-05-25T10:04:51.574Z,17.90
2023-05-25T10:07:19.836Z,18.00
2023-05-25T10:09:47.924Z,17.60
2023-05-25T10:12:20.269Z,17.20
2023-05-25T10:14:51.459Z,16.90
2023-05-25T10:17:23.756Z,17.20
2023-05-25T10:19:59.918Z,17.30
2023-05-25T10:22:36.799Z,17.20
2023-05-25T10:25:31.293Z,16.90
2023-05-25T10:28:07.614Z,17.10
2023-05-25T10:30:37.062Z,17.30
2023-05-25T10:33:05.571Z,17.50
2023-05-25T10:35:46.656Z,17.40
2023-05-25T10:38:22.648Z,17.30
2023-05-25T10:40:51.548Z,17.40
2023-05-25T10:43:20.128Z,17.50
2023-05-25T10:45:48.789Z,17.80
2023-05-25T10:48:19.030Z,17.60
2023-05-25T10:50:51.617Z,17.40
2023-05-25T10:53:21.643Z,17.20
2023-05-25T10:55:54.516Z,17.40
2023-05-25T10:58:23.352Z,17.70
2023-05-25T11:01:08.373Z,17.90
2023-05-25T11:03:44.850Z,17.20
2023-05-25T11:06:21.518Z,17.50
2023-05-25T11:08:59.703Z,18.00
2023-05-25T11:11:47.572Z,18.50
2023-05-25T11:14:42.443Z,18.10
2023-05-25T11:17:15.631Z,18.20
2023-05-25T11:19:54.195Z,18.30
2023-05-25T11:22:33.242Z,18.40
2023-05-25T11:25:03.285Z,18.70
2023-05-25T11:27:31.967Z,18.50
2023-05-25T11:30:00.550Z,18.80
2023-05-25T11:32:28.544Z,18.30
2023-05-25T11:34:58.156Z,18.00
2023-05-25T11:37:31.737Z,18.10
2023-05-25T11:39:59.007Z,17.90
2023-05-25T11:42:26.395Z,17.80
2023-05-25T11:44:53.676Z,18.10
2023-05-25T11:47:25.221Z,18.20
2023-05-25T11:49:55.681Z,17.90
2023-05-25T11:52:27.909Z,17.60
2023-05-25T11:54:55.032Z,17.80
2023-05-25T11:57:25.341Z,17.90
2023-05-25T11:59:55.560Z,17.90
2023-05-25T12:02:24.217Z,17.90
2023-05-25T12:05:00.141Z,17.80
2023-05-25T12:07:31.235Z,17.90
2023-05-25T12:10:10.092Z,18.30
2023-05-25T12:12:51.461Z,18.50
2023-05-25T12:15:22.119Z,18.50
2023-05-25T12:17:50.831Z,18.10
2023-05-25T12:20:18.873Z,18.00
2023-05-25T12:22:47.346Z,18.40
2023-05-25T12:25:21.420Z,18.60
2023-05-25T12:27:48.707Z,18.60
2023-05-25T12:30:16.110Z,18.30
2023-05-25T12:33:03.847Z,18.30
2023-05-25T12:35:49.054Z,18.30
2023-05-25T12:38:18.931Z,18.30
2023-05-25T12:40:46.361Z,18.40
2023-05-25T12:43:15.291Z,18.60
2023-05-25T12:45:43.554Z,18.60
2023-05-25T12:48:10.938Z,18.60
2023-05-25T12:50:38.407Z,18.70
2023-05-25T12:53:05.986Z,18.60
2023-05-25T12:55:35.570Z,18.80
2023-05-25T12:58:05.721Z,18.60
2023-05-25T13:00:38.802Z,18.50
2023-05-25T13:03:09.657Z,18.20
2023-05-25T13:05:38.669Z,18.10
2023-05-25T13:08:06.995Z,18.50
2023-05-25T13:10:37.649Z,18.80
2023-05-25T13:13:04.874Z,18.80
2023-05-25T13:15:32.045Z,18.60
2023-05-25T13:17:59.288Z,18.70
2023-05-25T13:20:30.244Z,18.80
2023-05-25T13:22:58.494Z,19.00
2023-05-25T13:25:28.439Z,19.10
2023-05-25T13:27:58.146Z,19.30
2023-05-25T13:30:26.335Z,19.30
2023-05-25T13:32:53.563Z,19.30
2023-05-25T13:35:46.265Z,18.90
2023-05-25T13:38:15.847Z,18.90
2023-05-25T13:40:45.011Z,18.80
2023-05-25T13:43:12.148Z,18.80
2023-05-25T13:45:39.286Z,18.60
2023-05-25T13:48:06.551Z,18.80
2023-05-25T13:50:33.691Z,18.90
2023-05-25T13:53:00.715Z,18.70
2023-05-25T13:55:27.714Z,18.50
2023-05-25T13:57:54.768Z,18.70
2023-05-25T14:00:21.936Z,19.00
2023-05-25T14:02:49.116Z,19.00
2023-05-25T14:05:16.328Z,18.90
2023-05-25T14:07:44.473Z,18.80
2023-05-25T14:10:12.089Z,18.60
2023-05-25T14:12:39.545Z,18.70
2023-05-25T14:15:08.218Z,18.50
2023-05-25T14:17:35.241Z,18.30
2023-05-25T14:20:05.650Z,18.50
2023-05-25T14:22:33.008Z,18.50
2023-05-25T14:25:00.086Z,18.80
2023-05-25T14:27:27.142Z,18.70
2023-05-25T14:29:54.167Z,18.30
2023-05-25T14:32:21.369Z,18.40
2023-05-25T14:34:48.418Z,18.20
2023-05-25T14:37:15.522Z,18.30
2023-05-25T14:39:42.614Z,18.30
2023-05-25T14:42:09.729Z,18.30
2023-05-25T14:44:36.950Z,18.40
2023-05-25T14:47:04.493Z,18.40
2023-05-25T14:49:31.674Z,18.50
2023-05-25T14:51:58.811Z,18.60
2023-05-25T14:54:26.231Z,18.50
2023-05-25T14:56:53.270Z,18.40
2023-05-25T14:59:20.473Z,18.30
2023-05-25T15:01:47.694Z,18.30
2023-05-25T15:04:14.924Z,18.20
2023-05-25T15:06:42.204Z,18.30
2023-05-25T15:09:09.532Z,18.30
2023-05-25T15:11:36.833Z,18.30
2023-05-25T15:14:03.941Z,18.50
2023-05-25T15:16:31.214Z,18.40
2023-05-25T15:18:58.408Z,18.20
2023-05-25T15:21:26.545Z,18.10
2023-05-25T15:23:53.654Z,18.10
2023-05-25T15:26:21.465Z,18.30
2023-05-25T15:28:48.473Z,18.30
2023-05-25T15:31:16.490Z,18.00
2023-05-25T15:33:54.311Z,17.90
2023-05-25T15:36:25.577Z,18.00
2023-05-25T15:38:52.869Z,18.00
2023-05-25T15:41:20.033Z,17.80
2023-05-25T15:43:54.638Z,17.90
2023-05-25T15:46:21.971Z,17.50
2023-05-25T15:48:49.090Z,17.70
2023-05-25T15:51:16.310Z,18.10
2023-05-25T15:53:43.492Z,17.80
2023-05-25T15:56:11.006Z,17.80
2023-05-25T15:58:38.182Z,17.50
2023-05-25T16:01:06.053Z,17.50
2023-05-25T16:03:33.138Z,17.50
2023-05-25T16:06:00.198Z,17.50
2023-05-25T16:08:27.336Z,17.50
2023-05-25T16:10:54.635Z,17.50
2023-05-25T16:13:21.807Z,17.60
2023-05-25T16:15:49.134Z,17.60
2023-05-25T16:18:16.726Z,17.20
2023-05-25T16:20:44.225Z,17.30
2023-05-25T16:23:11.572Z,17.50
2023-05-25T16:25:38.718Z,17.30
2023-05-25T16:28:05.710Z,17.00
2023-05-25T16:30:32.857Z,16.90
2023-05-25T16:32:59.827Z,16.90
2023-05-25T16:35:26.925Z,16.90
2023-05-25T16:37:54.102Z,16.80
2023-05-25T16:40:21.242Z,16.60
2023-05-25T16:42:48.357Z,16.40
2023-05-25T16:45:15.468Z,16.10
2023-05-25T16:47:42.522Z,16.10
2023-05-25T16:50:09.988Z,16.00
2023-05-25T16:52:37.121Z,15.80
2023-05-25T16:55:04.978Z,15.60
2023-05-25T16:57:32.085Z,15.40
2023-05-25T16:59:59.121Z,15.40
2023-05-25T17:02:26.398Z,15.20
2023-05-25T17:04:53.664Z,15.00
2023-05-25T17:07:20.859Z,15.00
2023-05-25T17:09:48.044Z,15.00
2023-05-25T17:12:15.156Z,14.80
2023-05-25T17:14:42.212Z,14.60
2023-05-25T17:17:09.380Z,14.60
2023-05-25T17:19:36.587Z,14.50
2023-05-25T17:22:03.715Z,14.30
2023-05-25T17:24:30.823Z,14.30
2023-05-25T17:26:57.921Z,14.30
2023-05-25T17:29:24.935Z,14.20
2023-05-25T17:31:52.081Z,14.20
2023-05-25T17:34:19.316Z,14.20
2023-05-25T17:36:46.362Z,14.20
2023-05-25T17:39:13.457Z,14.00
2023-05-25T17:41:41.468Z,14.00
2023-05-25T17:44:08.523Z,14.00
2023-05-25T17:46:36.338Z,13.90
2023-05-25T17:49:04.462Z,13.90
2023-05-25T17:51:31.460Z,13.90
2023-05-25T17:53:58.463Z,13.80
2023-05-25T17:56:26.352Z,13.80
2023-05-25T17:58:53.592Z,13.70
2023-05-25T18:01:20.859Z,13.60
2023-05-25T18:03:50.679Z,13.60
2023-05-25T18:06:17.870Z,13.50
2023-05-25T18:08:44.895Z,13.50
2023-05-25T18:11:12.072Z,13.40
2023-05-25T18:13:39.325Z,13.40
2023-05-25T18:16:06.447Z,13.40
2023-05-25T18:18:33.403Z,13.20
2023-05-25T18:21:00.892Z,13.20
2023-05-25T18:23:28.054Z,13.10
2023-05-25T18:25:55.524Z,13.10
2023-05-25T18:28:23.547Z,13.10
2023-05-25T18:30:50.714Z,13.00
2023-05-25T18:33:17.792Z,12.90
2023-05-25T18:35:45.155Z,12.90
2023-05-25T18:38:12.314Z,12.90
2023-05-25T18:40:39.449Z,12.80
2023-05-25T18:43:07.789Z,12.70
2023-05-25T18:45:35.016Z,12.70
2023-05-25T18:48:07.466Z,12.60
2023-05-25T18:50:35.850Z,12.60
2023-05-25T18:53:04.289Z,12.50
2023-05-25T18:55:31.382Z,12.40
2023-05-25T18:57:58.649Z,12.40
2023-05-25T19:00:25.811Z,12.40
2023-05-25T19:02:52.977Z,12.30
2023-05-25T19:05:21.571Z,12.20
2023-05-25T19:07:58.425Z,12.20
2023-05-25T19:10:27.272Z,12.00
2023-05-25T19:12:54.471Z,12.00
2023-05-25T19:15:21.731Z,11.90
2023-05-25T19:17:48.935Z,11.80
2023-05-25T19:20:16.498Z,11.80
2023-05-25T19:22:43.886Z,11.70
2023-05-25T19:25:11.098Z,11.70
2023-05-25T19:27:38.339Z,11.60
2023-05-25T19:30:06.135Z,11.50
2023-05-25T19:32:33.377Z,11.50
2023-05-25T19:35:00.609Z,11.40
2023-05-25T19:37:27.820Z,11.40
2023-05-25T19:39:54.918Z,11.30
2023-05-25T19:42:22.004Z,11.20
2023-05-25T19:44:49.104Z,11.10
2023-05-25T19:47:16.191Z,11.00
2023-05-25T19:49:43.364Z,11.00
2023-05-25T19:52:10.503Z,11.00
2023-05-25T19:54:38.392Z,10.90
2023-05-25T19:57:06.655Z,10.80
2023-05-25T19:59:33.791Z,10.80
2023-05-25T20:02:01.064Z,10.70
2023-05-25T20:04:28.100Z,10.70
2023-05-25T20:06:55.168Z,10.70
2023-05-25T20:09:30.082Z,10.60
2023-05-25T20:11:58.725Z,10.50
2023-05-25T20:14:26.648Z,10.50
2023-05-25T20:16:55.879Z,10.50
2023-05-25T20:19:23.278Z,10.40
2023-05-25T20:21:51.390Z,10.40
2023-05-25T20:24:18.695Z,10.40
2023-05-25T20:26:45.992Z,10.40
2023-05-25T20:29:13.047Z,10.30
2023-05-25T20:31:40.553Z,10.20
2023-05-25T20:34:07.799Z,10.20
2023-05-25T20:36:34.868Z,10.20
2023-05-25T20:39:03.113Z,10.10
2023-05-25T20:41:30.302Z,10.10
2023-05-25T20:43:57.831Z,10.10
2023-05-25T20:46:25.049Z,10.10
2023-05-25T20:48:53.388Z,10.10
2023-05-25T20:51:21.749Z,10.00
2023-05-25T20:53:48.988Z,10.00
2023-05-25T20:56:16.270Z,10.00
2023-05-25T20:58:43.628Z,9.90
2023-05-25T21:01:11.083Z,9.80
2023-05-25T21:03:39.389Z,9.80
2023-05-25T21:06:06.911Z,9.70
2023-05-25T21:08:34.314Z,9.70
2023-05-25T21:11:01.622Z,9.60
2023-05-25T21:13:28.781Z,9.60
2023-05-25T21:15:56.438Z,9.60
2023-05-25T21:18:23.509Z,9.50
2023-05-25T21:20:50.679Z,9.40
2023-05-25T21:23:17.833Z,9.30
2023-05-25T21:25:45.100Z,9.30
2023-05-25T21:28:12.469Z,9.20
2023-05-25T21:30:39.669Z,9.20
2023-05-25T21:33:06.678Z,9.10
2023-05-25T21:35:33.757Z,9.10
2023-05-25T21:38:01.106Z,9.00
2023-05-25T21:40:28.599Z,8.90
2023-05-25T21:42:56.076Z,8.90
2023-05-25T21:45:23.170Z,8.80
2023-05-25T21:47:50.480Z,8.80
2023-05-25T21:50:17.563Z,8.70
2023-05-25T21:52:44.866Z,8.70
2023-05-25T21:55:12.192Z,8.70
2023-05-25T21:57:39.221Z,8.60
2023-05-25T22:00:07.098Z,8.60
2023-05-25T22:02:40.971Z,8.50
2023-05-25T22:05:08.183Z,8.40
2023-05-25T22:07:35.289Z,8.40
2023-05-25T22:10:02.544Z,8.40
2023-05-25T22:12:29.557Z,8.30
2023-05-25T22:14:56.589Z,8.30
2023-05-25T22:17:23.611Z,8.30
2023-05-25T22:20:03.246Z,8.30
2023-05-25T22:22:34.940Z,8.20
2023-05-25T22:25:02.042Z,8.10
2023-05-25T22:27:29.162Z,8.10
2023-05-25T22:29:56.433Z,8.10
2023-05-25T22:32:23.626Z,8.00
2023-05-25T22:34:50.880Z,8.00
2023-05-25T22:37:18.011Z,7.90
2023-05-25T22:39:45.287Z,7.90
2023-05-25T22:42:12.521Z,7.90
2023-05-25T22:44:39.646Z,7.80
2023-05-25T22:47:07.160Z,7.80
2023-05-25T22:49:41.221Z,7.70
2023-05-25T22:52:12.264Z,7.70
2023-05-25T22:54:39.768Z,7.60
2023-05-25T22:57:09.118Z,7.60
2023-05-25T22:59:36.450Z,7.50
2023-05-25T23:02:04.040Z,7.40
2023-05-25T23:04:31.445Z,7.40
2023-05-25T23:06:58.506Z,7.40
2023-05-25T23:09:25.555Z,7.30
2023-05-25T23:11:52.603Z,7.30
2023-05-25T23:14:20.798Z,7.30
2023-05-25T23:16:50.553Z,7.30
2023-05-25T23:19:17.887Z,7.20
2023-05-25T23:21:45.005Z,7.20
2023-05-25T23:24:12.281Z,7.20
2023-05-25T23:26:39.391Z,7.20
2023-05-25T23:29:06.551Z,7.10
2023-05-25T23:31:33.668Z,7.10
2023-05-25T23:34:01.243Z,7.10
2023-05-25T23:36:28.480Z,7.00
2023-05-25T23:38:55.997Z,7.00
2023-05-25T23:41:23.378Z,7.00
2023-05-25T23:43:50.676Z,6.90
2023-05-25T23:46:18.093Z,6.90
2023-05-25T23:48:46.067Z,6.90
2023-05-25T23:51:13.261Z,6.90
2023-05-25T23:53:40.286Z,6.80
2023-05-25T23:56:07.458Z,6.80
2023-05-25T23:58:34.624Z,6.80
